Time,TemperatureF,DewpointF,PressureIn,WindDirection,WindDirectionDegrees,WindSpeedMPH,WindSpeedGustMPH,Humidity,HourlyPrecipIn,Conditions,Clouds,dailyrainin,SoftwareType,DateUTC
2013-04-13 00:00:00,34.4,33.4,29.66,N/A,-737280,0.0,0.0,96,0.00,,,0.00,Wunderground v.1.13,2013-04-13 04:00:00,
2013-04-13 00:30:00,34.4,33.4,29.66,N/A,-737280,0.0,0.0,96,0.00,,,0.00,Wunderground v.1.13,2013-04-13 04:30:00,
2013-04-13 01:00:00,39.3,38.5,29.66,East,90,1.0,6.0,97,0.00,,,0.00,Wunderground v.1.13,2013-04-13 05:00:00,
2013-04-13 01:30:00,38.9,37.9,29.66,SSE,158,0.0,4.0,96,0.00,,,0.00,Wunderground v.1.13,2013-04-13 05:30:00,
2013-04-13 02:00:00,40.1,39.1,29.65,SSE,158,2.0,12.0,96,0.00,,,0.00,Wunderground v.1.13,2013-04-13 06:00:00,
2013-04-13 02:30:00,39.9,38.0,29.65,SW,225,4.0,14.0,93,0.00,,,0.00,Wunderground v.1.13,2013-04-13 06:30:00,
2013-04-13 03:00:00,39.9,36.3,29.65,SW,225,5.0,15.0,87,0.00,,,0.00,Wunderground v.1.13,2013-04-13 07:00:00,
2013-04-13 03:30:00,39.8,36.2,29.66,SW,225,4.0,16.0,87,0.00,,,0.00,Wunderground v.1.13,2013-04-13 07:30:00,
2013-04-13 04:00:00,39.5,36.2,29.66,SW,225,4.0,10.0,88,0.00,,,0.00,Wunderground v.1.13,2013-04-13 08:00:00,
2013-04-13 04:30:00,39.1,36.1,29.66,SW,225,4.0,12.0,89,0.00,,,0.00,Wunderground v.1.13,2013-04-13 08:30:00,
2013-04-13 05:00:00,38.8,36.7,29.67,SW,225,3.0,12.0,92,0.00,,,0.00,Wunderground v.1.13,2013-04-13 09:00:00,
2013-04-13 05:30:00,38.8,36.7,29.67,SW,225,3.0,10.0,92,0.00,,,0.00,Wunderground v.1.13,2013-04-13 09:30:00,
2013-04-13 06:00:00,38.9,37.0,29.68,SW,225,3.0,10.0,93,0.00,,,0.00,Wunderground v.1.13,2013-04-13 10:00:00,
2013-04-13 06:30:00,38.9,36.8,29.69,SW,225,3.0,9.0,92,0.00,,,0.00,Wunderground v.1.13,2013-04-13 10:30:00,
2013-04-13 07:00:00,39.2,37.1,29.69,SW,225,3.0,8.0,92,0.00,,,0.00,Wunderground v.1.13,2013-04-13 11:00:00,
2013-04-13 07:30:00,39.5,37.4,29.70,SSW,203,3.0,10.0,92,0.00,,,0.00,Wunderground v.1.13,2013-04-13 11:30:00,
2013-04-13 08:00:00,40.2,37.8,29.69,SSW,203,3.0,9.0,91,0.00,,,0.00,Wunderground v.1.13,2013-04-13 12:00:00,
2013-04-13 08:30:00,40.8,37.5,29.70,SW,225,3.0,11.0,88,0.00,,,0.00,Wunderground v.1.13,2013-04-13 12:30:00,
2013-04-13 09:00:00,44.5,30.2,29.65,SSW,204,12.0,13.0,57,0.00,,,0.00,Wunderground v.1.13,2013-04-13 13:00:00,
2013-04-13 09:30:00,42.2,37.4,29.70,SW,225,4.0,14.0,83,0.00,,,0.00,Wunderground v.1.13,2013-04-13 13:30:00,
2013-04-13 10:00:00,42.2,37.7,29.70,SSW,203,4.0,11.0,84,0.00,,,0.00,Wunderground v.1.13,2013-04-13 14:00:00,
2013-04-13 10:30:00,42.5,37.7,29.70,SSW,203,3.0,11.0,83,0.00,,,0.00,Wunderground v.1.13,2013-04-13 14:30:00,
2013-04-13 11:00:00,42.9,37.5,29.70,SSW,203,4.0,12.0,81,0.00,,,0.00,Wunderground v.1.13,2013-04-13 15:00:00,
2013-04-13 11:30:00,43.3,37.9,29.71,SW,225,4.0,12.0,81,0.00,,,0.00,Wunderground v.1.13,2013-04-13 15:30:00,
2013-04-13 12:00:00,44.5,38.1,29.70,SW,225,4.0,13.0,78,0.00,,,0.00,Wunderground v.1.13,2013-04-13 16:00:00,
2013-04-13 12:30:00,44.5,37.4,29.70,SSW,203,3.0,16.0,76,0.00,,,0.00,Wunderground v.1.13,2013-04-13 16:30:00,
2013-04-13 13:00:00,44.9,37.8,29.70,SW,225,3.0,10.0,76,0.00,,,0.00,Wunderground v.1.13,2013-04-13 17:00:00,
2013-04-13 13:30:00,42.8,31.5,29.78,SSW,204,11.0,19.0,64,0.00,,,0.04,Wunderground v.1.13,2013-04-13 17:30:00,
2013-04-13 14:00:00,45.4,37.9,29.70,SSW,203,5.0,14.0,75,0.00,,,0.00,Wunderground v.1.13,2013-04-13 18:00:00,
2013-04-13 14:30:00,45.2,38.1,29.70,SSW,203,5.0,14.0,76,0.00,,,0.00,Wunderground v.1.13,2013-04-13 18:30:00,
2013-04-13 15:00:00,44.9,36.8,29.70,WSW,248,6.0,16.0,73,0.00,,,0.00,Wunderground v.1.13,2013-04-13 19:00:00,
2013-04-13 15:30:00,45.4,36.9,29.70,SW,225,5.0,15.0,72,0.00,,,0.00,Wunderground v.1.13,2013-04-13 19:30:00,
2013-04-13 16:00:00,45.8,33.5,29.70,SW,225,7.0,20.0,62,0.00,,,0.00,Wunderground v.1.13,2013-04-13 20:00:00,
2013-04-13 16:30:00,44.5,35.3,29.72,SW,225,9.0,25.0,70,0.00,,,0.00,Wunderground v.1.13,2013-04-13 20:30:00,
2013-04-13 17:00:00,43.5,35.4,29.73,SW,225,7.0,21.0,73,0.00,,,0.00,Wunderground v.1.13,2013-04-13 21:00:00,
2013-04-13 17:30:00,43.2,34.1,29.73,SW,225,7.0,18.0,70,0.00,,,0.00,Wunderground v.1.13,2013-04-13 21:30:00,
2013-04-13 18:00:00,43.1,32.9,29.74,SW,225,6.0,21.0,67,0.00,,,0.00,Wunderground v.1.13,2013-04-13 22:00:00,
2013-04-13 18:30:00,42.5,32.3,29.75,SW,225,7.0,19.0,67,0.00,,,0.00,Wunderground v.1.13,2013-04-13 22:30:00,
2013-04-13 19:00:00,42.6,32.4,29.75,SW,225,7.0,21.0,67,0.00,,,0.00,Wunderground v.1.13,2013-04-13 23:00:00,
2013-04-13 19:30:00,42.5,32.7,29.77,SW,225,7.0,21.0,68,0.00,,,0.00,Wunderground v.1.13,2013-04-13 23:30:00,
2013-04-13 20:00:00,42.3,33.2,29.78,SW,225,6.0,15.0,70,0.00,,,0.00,Wunderground v.1.13,2013-04-14 00:00:00,
2013-04-13 20:30:00,41.8,33.1,29.78,SW,225,5.0,14.0,71,0.00,,,0.00,Wunderground v.1.13,2013-04-14 00:30:00,
2013-04-13 21:00:00,41.6,33.6,29.79,SW,225,5.0,15.0,73,0.00,,,0.00,Wunderground v.1.13,2013-04-14 01:00:00,
2013-04-13 21:30:00,41.3,33.6,29.80,SW,225,5.0,14.0,74,0.00,,,0.00,Wunderground v.1.13,2013-04-14 01:30:00,
2013-04-13 22:00:00,41.2,33.5,29.80,SW,225,5.0,14.0,74,0.00,,,0.00,Wunderground v.1.13,2013-04-14 02:00:00,
2013-04-13 22:30:00,40.9,33.6,29.80,SW,225,5.0,14.0,75,0.00,,,0.00,Wunderground v.1.13,2013-04-14 02:30:00,
2013-04-13 23:00:00,40.6,33.6,29.80,SW,225,5.0,13.0,76,0.00,,,0.00,Wunderground v.1.13,2013-04-14 03:00:00,
2013-04-13 23:30:00,40.6,33.6,29.80,SW,225,4.0,14.0,76,0.00,,,0.00,Wunderground v.1.13,2013-04-14 03:30:00,